• Back
  •  
  • Position of Reservoir Gates
S.No.
No. of opened gates
Position of opening (In m)
Reporting Date
Reporting Time
Discharge in Cumecs
Discharge in Cusecs
Actual date and time of Gate opening
1
2
3
4
5
6
7
8
1 4 08/08/2012 1:47:01 PM 528
2 4 18/08/2012 3:41:07 PM 234.04
3 6 22/08/2012 1:18:32 PM 811.2
4 3 27/08/2012 2:31:42 PM 279.12
5 3 28/08/2012 5:51:52 PM 479.04
6 1 21/09/2012 5:32:27 AM 116.83
7 1 24/09/2012 5:52:44 AM 146.4
8 1 24/09/2012 5:52:44 AM 146.4
9 1 11/09/2012 5:16:55 PM 284.52
10 1 31/08/2012 2:55:29 PM 139.56
11 1 03/09/2012 6:13:19 AM 139.56
12 1 04/09/2012 6:08:17 AM 138.6
13 1 05/09/2012 8:36:58 AM 280.55
14 1 13/09/2012 6:25:53 PM 229.15
15 3 06/09/2012 7:58:19 AM 592.2
16 1 07/09/2012 12:37:55 PM 285.48
17 1 10/09/2012 5:18:46 AM 174.09
18 1 10/09/2012 5:18:46 AM 174.09
19 3 10/09/2012 6:47:05 PM 577.56
20 1 25/05/2013 4:49:31 PM 45.45
21 1 28/05/2013 12:12:41 PM 30.85
22 1 28/05/2013 12:12:41 PM 30.85
23 4 26/06/2013 2:52:54 PM 0.52
24 5 28/06/2013 12:34:38 PM 30.78
25 4 29/06/2013 5:28:38 PM 4.75
26 4 30/06/2013 2:34:38 PM 1.68
27 4 01/07/2013 2:10:38 PM 0.42
28 4 03/07/2013 11:48:41 AM 8.71
29 4 04/07/2013 1:18:41 PM 107.52
30 4 05/07/2013 11:03:41 AM 4.75
31 4 07/07/2013 12:45:46 PM 0.42
32 4 09/07/2013 12:03:47 PM 275.76
33 4 10/07/2013 8:54:47 AM 53.04
34 4 12/07/2013 12:13:38 PM 76.56
35 4 12/07/2013 12:15:47 PM 76.56
36 4 13/07/2013 1:56:02 PM 45.36
37 3 18/07/2013 10:48:58 PM 516.72
38 1 19/07/2013 4:28:13 PM 307.2
39 3 21/07/2013 1:22:18 PM 421.56
40 3 23/07/2013 1:35:50 PM 412.56
41 1 24/07/2013 2:47:40 PM 136.44
42 1 25/07/2013 11:56:58 AM 109.15
43 3 25/07/2013 2:50:58 PM 449.64
44 1 26/07/2013 6:29:39 PM 82.8
45 2 27/07/2013 12:14:39 PM 205.59
46 4 27/07/2013 4:50:39 PM 479.05
47 3 28/07/2013 7:08:39 PM 369.64
48 3 29/07/2013 2:53:07 PM 406.32
49 1 01/08/2013 3:04:49 PM 135.96
50 2 02/08/2013 11:40:49 AM 275.52
51 1 07/08/2013 2:48:46 PM 43.66
52 2 07/08/2013 5:48:46 PM 287.04
53 2 09/08/2013 8:27:46 PM 283
54 1 12/08/2013 12:26:29 PM 73.26
55 1 15/08/2013 4:25:26 PM 44.24
56 5 20/08/2013 4:32:08 PM 1429.88
57 3 21/08/2013 8:34:10 PM 436.68
58 1 22/08/2013 6:40:12 PM 86.4
59 2 22/08/2013 10:04:12 PM 285.12
60 6 23/08/2013 1:31:12 PM 1236.04
61 2 24/08/2013 5:46:12 PM 291.12
62 1 30/08/2013 5:52:45 PM 22.42
63 1 01/09/2013 9:04:45 PM 29.85
64 1 05/09/2013 11:25:18 AM 22.42
65 1 10/09/2013 9:51:32 AM 14.97
66 1 22/09/2013 7:01:17 PM 15.07
67 1 05/10/2013 5:08:48 PM 12.02
68 1 08/10/2013 8:02:48 PM 15.02
69 2 23/07/2014 11:19:39 AM 83.01
70 1 01/08/2014 6:08:05 PM 27.91
71 1 05/08/2014 4:43:40 PM 41.4
72 3 06/08/2014 12:35:40 PM 574.68
73 3 06/08/2014 12:35:40 PM 574.68
74 1 11/08/2014 8:47:42 AM 42.91
75 1 26/08/2014 9:27:45 AM 42.36
76 1 29/08/2014 4:07:45 AM 42.36
77 1 30/08/2014 9:19:45 AM 22.37
78 1 30/08/2014 8:43:45 PM 88.48
79 1 01/09/2014 8:23:45 AM 145.56
80 2 02/09/2014 6:19:45 PM 190.34
81 1 03/09/2014 1:35:45 PM 145.56
82 1 05/09/2014 9:27:45 AM 29.85
83 1 07/09/2014 12:51:45 PM 44.38
84 1 16/09/2014 8:30:34 AM 29.78
85 1 18/09/2014 10:02:34 AM 29.95
86 1 23/09/2014 10:42:35 AM 29.95
87 4 11/07/2015 2:43:12 PM 424.8
88 3 18/07/2015 1:03:14 PM 610.78
89 4 18/07/2015 5:31:14 PM 1095.51
90 6 19/07/2015 1:27:14 PM 1749.24
91 1 21/07/2015 8:27:17 AM 41.76
92 5 24/07/2015 4:23:17 AM 1049.93
93 2 26/07/2015 2:27:17 PM 330.42
94 1 28/07/2015 10:59:17 PM 27.5
95 1 03/08/2015 9:48:54 AM 86.11
96 2 04/08/2015 12:09:42 PM 271.05
97 1 05/08/2015 8:28:58 AM 62.96
98 2 08/08/2015 10:21:44 PM 226.63
99 2 11/08/2015 10:03:20 PM 321.78
100 1 14/08/2015 9:57:57 AM 28.6
101 6 15/08/2015 11:49:57 AM 1115.28
102 6 15/08/2015 10:13:58 PM 1115.28
103 2 16/08/2015 9:02:00 AM 204.84
104 1 18/08/2015 7:39:58 PM 42.62
105 1 22/08/2015 8:55:46 AM 44.53
106 1 22/08/2015 8:55:46 AM 44.53
107 1 26/08/2015 10:19:08 AM 29.85
108 1 28/08/2015 11:58:22 AM 30.04
109 1 06/09/2015 6:37:40 PM 44.78
110 1 17/09/2015 1:43:04 PM 44.92
111 1 22/09/2015 4:39:04 PM 30.04
112 1 22/01/2016 7:03:35 PM 17.62
113 1 16/02/2016 3:40:13 PM 10.95
114 1 09/07/2016 8:35:34 PM 78.76
115 1 12/07/2016 5:36:56 PM 123.33
116 1 16/07/2016 11:14:54 PM 43.05
117 1 24/07/2016 8:43:56 PM 44.1
118 1 26/07/2016 8:08:21 PM 29.49
119 1 28/07/2016 2:35:48 PM 58.99
120 1 30/07/2016 4:34:31 AM 44.38
121 1 31/07/2016 8:05:30 PM 130.57
122 1 31/07/2016 8:53:30 PM 130.57
123 1 01/08/2016 8:07:14 PM 44.24
124 1 03/08/2016 8:24:26 PM 44.1
125 1 05/08/2016 11:56:34 PM 129.6
126 3 06/08/2016 2:00:34 AM 705.36
127 3 06/08/2016 2:04:34 AM 705.36
128 3 07/08/2016 12:47:48 PM 432
129 1 11/08/2016 9:45:12 PM 73.26
130 1 13/08/2016 8:13:27 AM 144
131 1 13/08/2016 8:25:01 AM 144
132 1 19/08/2016 8:03:08 AM 44.67
133 6 20/08/2016 5:55:53 PM 1215
134 1 22/08/2016 7:32:06 AM 144
135 1 31/08/2016 9:53:15 PM 44.67
136 1 16/09/2016 5:23:30 PM 15.02
137 1 08/10/2016 9:28:23 AM 15.02
138 2 28/07/2017 7:37:35 AM 206
139 3 28/07/2017 10:21:35 AM 290
140 2 28/07/2017 1:57:35 PM 44
141 0 28/07/2017 1:57:35 PM 0
142 0 28/07/2017 1:57:35 PM 0
143 3 28/07/2017 1:57:35 PM 225
144 0 30/07/2017 9:16:24 PM 0
145 1 30/07/2017 9:22:55 PM 46
146 1 30/07/2017 9:26:55 PM 10.71
147 0 10/08/2017 9:02:21 AM 0
148 2 20/08/2018 9:32:00 PM 56
Powered by © Water Resources Department (MP). All Rights Reserved.